sensor_id;sensor_type;location;lat;lon;timestamp;P1;durP1;ratioP1;P2;durP2;ratioP2
9904;SDS011;4991;43.566;27.820;2023-09-19T00:00:23;15.13;;;6.50;;
9904;SDS011;4991;43.566;27.820;2023-09-19T00:02:57;7.63;;;6.63;;
9904;SDS011;4991;43.566;27.820;2023-09-19T00:05:26;8.30;;;6.27;;
9904;SDS011;4991;43.566;27.820;2023-09-19T00:07:54;12.97;;;6.57;;
9904;SDS011;4991;43.566;27.820;2023-09-19T00:10:24;8.53;;;6.27;;
9904;SDS011;4991;43.566;27.820;2023-09-19T00:12:52;9.93;;;7.23;;
9904;SDS011;4991;43.566;27.820;2023-09-19T00:15:22;8.00;;;6.27;;
9904;SDS011;4991;43.566;27.820;2023-09-19T00:17:48;7.97;;;6.63;;
9904;SDS011;4991;43.566;27.820;2023-09-19T00:20:14;10.10;;;6.77;;
9904;SDS011;4991;43.566;27.820;2023-09-19T00:22:43;7.10;;;6.17;;
9904;SDS011;4991;43.566;27.820;2023-09-19T00:25:08;9.03;;;7.00;;
9904;SDS011;4991;43.566;27.820;2023-09-19T00:27:35;9.30;;;6.50;;
9904;SDS011;4991;43.566;27.820;2023-09-19T00:30:07;7.20;;;6.17;;
9904;SDS011;4991;43.566;27.820;2023-09-19T00:32:40;10.73;;;6.93;;
9904;SDS011;4991;43.566;27.820;2023-09-19T00:35:06;9.00;;;6.33;;
9904;SDS011;4991;43.566;27.820;2023-09-19T00:37:34;9.63;;;6.80;;
9904;SDS011;4991;43.566;27.820;2023-09-19T00:39:59;6.93;;;6.23;;
9904;SDS011;4991;43.566;27.820;2023-09-19T00:42:25;9.40;;;7.00;;
9904;SDS011;4991;43.566;27.820;2023-09-19T00:44:51;9.20;;;6.53;;
9904;SDS011;4991;43.566;27.820;2023-09-19T00:47:17;9.27;;;6.40;;
9904;SDS011;4991;43.566;27.820;2023-09-19T00:49:44;10.63;;;6.63;;
9904;SDS011;4991;43.566;27.820;2023-09-19T00:52:15;7.83;;;6.77;;
9904;SDS011;4991;43.566;27.820;2023-09-19T00:54:45;9.37;;;7.00;;
9904;SDS011;4991;43.566;27.820;2023-09-19T00:57:12;7.37;;;6.37;;
9904;SDS011;4991;43.566;27.820;2023-09-19T00:59:37;9.60;;;7.10;;
9904;SDS011;4991;43.566;27.820;2023-09-19T01:02:03;10.20;;;7.23;;
9904;SDS011;4991;43.566;27.820;2023-09-19T01:04:29;9.13;;;6.90;;
9904;SDS011;4991;43.566;27.820;2023-09-19T01:06:57;13.43;;;6.73;;
9904;SDS011;4991;43.566;27.820;2023-09-19T01:09:23;7.67;;;6.27;;
9904;SDS011;4991;43.566;27.820;2023-09-19T01:11:50;11.90;;;7.23;;
9904;SDS011;4991;43.566;27.820;2023-09-19T01:14:31;6.97;;;6.27;;
9904;SDS011;4991;43.566;27.820;2023-09-19T01:17:20;11.23;;;7.00;;
9904;SDS011;4991;43.566;27.820;2023-09-19T01:23:11;11.47;;;6.93;;
9904;SDS011;4991;43.566;27.820;2023-09-19T01:31:09;10.33;;;7.70;;
9904;SDS011;4991;43.566;27.820;2023-09-19T01:36:35;9.60;;;7.27;;
9904;SDS011;4991;43.566;27.820;2023-09-19T01:44:26;14.57;;;7.50;;
9904;SDS011;4991;43.566;27.820;2023-09-19T01:47:02;13.20;;;7.83;;
9904;SDS011;4991;43.566;27.820;2023-09-19T01:49:37;12.17;;;8.57;;
9904;SDS011;4991;43.566;27.820;2023-09-19T01:52:15;12.70;;;8.17;;
9904;SDS011;4991;43.566;27.820;2023-09-19T01:54:46;11.13;;;7.80;;
9904;SDS011;4991;43.566;27.820;2023-09-19T01:57:19;9.80;;;8.03;;
9904;SDS011;4991;43.566;27.820;2023-09-19T02:02:47;11.13;;;7.57;;
9904;SDS011;4991;43.566;27.820;2023-09-19T02:05:13;9.77;;;7.70;;
9904;SDS011;4991;43.566;27.820;2023-09-19T02:07:46;10.87;;;7.80;;
9904;SDS011;4991;43.566;27.820;2023-09-19T02:10:13;8.27;;;7.30;;
9904;SDS011;4991;43.566;27.820;2023-09-19T02:12:39;10.40;;;7.93;;
9904;SDS011;4991;43.566;27.820;2023-09-19T02:15:05;12.67;;;7.43;;
9904;SDS011;4991;43.566;27.820;2023-09-19T02:17:32;8.80;;;7.33;;
9904;SDS011;4991;43.566;27.820;2023-09-19T02:19:58;12.43;;;7.60;;
9904;SDS011;4991;43.566;27.820;2023-09-19T02:22:24;10.37;;;7.40;;
9904;SDS011;4991;43.566;27.820;2023-09-19T02:24:50;9.80;;;7.97;;
9904;SDS011;4991;43.566;27.820;2023-09-19T02:30:19;8.47;;;7.00;;
9904;SDS011;4991;43.566;27.820;2023-09-19T02:35:39;10.00;;;7.73;;
9904;SDS011;4991;43.566;27.820;2023-09-19T02:38:05;10.90;;;8.07;;
9904;SDS011;4991;43.566;27.820;2023-09-19T02:40:33;11.77;;;8.23;;
9904;SDS011;4991;43.566;27.820;2023-09-19T02:43:13;12.37;;;8.13;;
9904;SDS011;4991;43.566;27.820;2023-09-19T02:48:24;12.80;;;8.60;;
9904;SDS011;4991;43.566;27.820;2023-09-19T02:50:50;10.10;;;7.13;;
9904;SDS011;4991;43.566;27.820;2023-09-19T02:53:17;10.13;;;7.67;;
9904;SDS011;4991;43.566;27.820;2023-09-19T02:55:42;11.30;;;7.67;;
9904;SDS011;4991;43.566;27.820;2023-09-19T02:58:08;10.37;;;8.17;;
9904;SDS011;4991;43.566;27.820;2023-09-19T03:00:36;11.00;;;8.00;;
9904;SDS011;4991;43.566;27.820;2023-09-19T03:03:03;10.53;;;8.27;;
9904;SDS011;4991;43.566;27.820;2023-09-19T03:05:31;11.67;;;8.63;;
9904;SDS011;4991;43.566;27.820;2023-09-19T03:07:57;13.93;;;7.87;;
9904;SDS011;4991;43.566;27.820;2023-09-19T03:10:25;13.10;;;8.73;;
9904;SDS011;4991;43.566;27.820;2023-09-19T03:12:53;15.00;;;9.33;;
9904;SDS011;4991;43.566;27.820;2023-09-19T03:15:19;10.90;;;8.30;;
9904;SDS011;4991;43.566;27.820;2023-09-19T03:17:45;14.47;;;8.10;;
9904;SDS011;4991;43.566;27.820;2023-09-19T03:20:12;10.57;;;7.83;;
9904;SDS011;4991;43.566;27.820;2023-09-19T03:22:39;11.53;;;8.23;;
9904;SDS011;4991;43.566;27.820;2023-09-19T03:25:07;12.60;;;8.90;;
9904;SDS011;4991;43.566;27.820;2023-09-19T03:27:34;13.40;;;8.17;;
9904;SDS011;4991;43.566;27.820;2023-09-19T03:30:00;11.07;;;7.77;;
9904;SDS011;4991;43.566;27.820;2023-09-19T03:32:31;20.67;;;9.80;;
9904;SDS011;4991;43.566;27.820;2023-09-19T03:34:57;18.50;;;9.97;;
9904;SDS011;4991;43.566;27.820;2023-09-19T03:37:22;12.63;;;8.73;;
9904;SDS011;4991;43.566;27.820;2023-09-19T03:39:48;11.03;;;8.13;;
9904;SDS011;4991;43.566;27.820;2023-09-19T03:42:14;17.90;;;9.47;;
9904;SDS011;4991;43.566;27.820;2023-09-19T03:44:39;13.43;;;9.33;;
9904;SDS011;4991;43.566;27.820;2023-09-19T03:47:05;11.60;;;8.57;;
9904;SDS011;4991;43.566;27.820;2023-09-19T03:49:32;12.00;;;8.57;;
9904;SDS011;4991;43.566;27.820;2023-09-19T03:51:59;14.80;;;9.13;;
9904;SDS011;4991;43.566;27.820;2023-09-19T03:54:25;13.97;;;10.07;;
9904;SDS011;4991;43.566;27.820;2023-09-19T03:56:50;16.43;;;10.13;;
9904;SDS011;4991;43.566;27.820;2023-09-19T03:59:16;13.10;;;9.37;;
9904;SDS011;4991;43.566;27.820;2023-09-19T04:01:43;19.27;;;10.70;;
9904;SDS011;4991;43.566;27.820;2023-09-19T04:04:09;19.73;;;10.00;;
9904;SDS011;4991;43.566;27.820;2023-09-19T04:06:35;16.50;;;8.87;;
9904;SDS011;4991;43.566;27.820;2023-09-19T04:09:01;15.17;;;8.90;;
9904;SDS011;4991;43.566;27.820;2023-09-19T04:11:28;17.10;;;9.00;;
9904;SDS011;4991;43.566;27.820;2023-09-19T04:13:55;24.63;;;11.27;;
9904;SDS011;4991;43.566;27.820;2023-09-19T04:16:21;15.53;;;9.60;;
9904;SDS011;4991;43.566;27.820;2023-09-19T04:18:46;13.17;;;9.10;;
9904;SDS011;4991;43.566;27.820;2023-09-19T04:21:12;13.37;;;8.50;;
9904;SDS011;4991;43.566;27.820;2023-09-19T04:23:38;18.83;;;9.70;;
9904;SDS011;4991;43.566;27.820;2023-09-19T04:26:04;21.30;;;9.27;;
9904;SDS011;4991;43.566;27.820;2023-09-19T04:28:30;13.67;;;8.97;;
9904;SDS011;4991;43.566;27.820;2023-09-19T04:30:56;16.93;;;9.70;;
9904;SDS011;4991;43.566;27.820;2023-09-19T04:33:24;17.37;;;9.30;;
9904;SDS011;4991;43.566;27.820;2023-09-19T04:35:50;23.57;;;10.70;;
9904;SDS011;4991;43.566;27.820;2023-09-19T04:38:17;20.23;;;10.73;;
9904;SDS011;4991;43.566;27.820;2023-09-19T04:40:44;19.63;;;11.23;;
9904;SDS011;4991;43.566;27.820;2023-09-19T04:43:10;22.40;;;11.80;;
9904;SDS011;4991;43.566;27.820;2023-09-19T04:45:36;19.00;;;11.77;;
9904;SDS011;4991;43.566;27.820;2023-09-19T04:48:04;23.57;;;11.90;;
9904;SDS011;4991;43.566;27.820;2023-09-19T04:50:31;19.03;;;12.73;;
9904;SDS011;4991;43.566;27.820;2023-09-19T04:52:59;21.03;;;11.17;;
9904;SDS011;4991;43.566;27.820;2023-09-19T04:55:26;17.17;;;9.70;;
9904;SDS011;4991;43.566;27.820;2023-09-19T04:57:52;21.90;;;10.53;;
9904;SDS011;4991;43.566;27.820;2023-09-19T05:00:19;13.97;;;9.77;;
9904;SDS011;4991;43.566;27.820;2023-09-19T05:02:54;14.53;;;10.60;;
9904;SDS011;4991;43.566;27.820;2023-09-19T05:05:24;16.47;;;10.10;;
9904;SDS011;4991;43.566;27.820;2023-09-19T05:07:51;21.60;;;11.77;;
9904;SDS011;4991;43.566;27.820;2023-09-19T05:10:19;34.93;;;12.97;;
9904;SDS011;4991;43.566;27.820;2023-09-19T05:12:45;23.40;;;13.27;;
9904;SDS011;4991;43.566;27.820;2023-09-19T05:15:14;20.47;;;12.87;;
9904;SDS011;4991;43.566;27.820;2023-09-19T05:17:52;24.30;;;12.87;;
9904;SDS011;4991;43.566;27.820;2023-09-19T05:20:24;22.07;;;13.43;;
9904;SDS011;4991;43.566;27.820;2023-09-19T05:23:04;27.63;;;13.47;;
9904;SDS011;4991;43.566;27.820;2023-09-19T05:25:36;21.17;;;13.83;;
9904;SDS011;4991;43.566;27.820;2023-09-19T05:28:03;24.20;;;13.90;;
9904;SDS011;4991;43.566;27.820;2023-09-19T05:30:39;25.33;;;14.23;;
9904;SDS011;4991;43.566;27.820;2023-09-19T05:33:05;16.73;;;13.17;;
9904;SDS011;4991;43.566;27.820;2023-09-19T05:35:31;21.37;;;13.87;;
9904;SDS011;4991;43.566;27.820;2023-09-19T05:37:58;33.80;;;13.80;;
9904;SDS011;4991;43.566;27.820;2023-09-19T05:40:25;25.53;;;13.77;;
9904;SDS011;4991;43.566;27.820;2023-09-19T05:42:52;29.37;;;14.93;;
9904;SDS011;4991;43.566;27.820;2023-09-19T05:45:18;25.50;;;13.07;;
9904;SDS011;4991;43.566;27.820;2023-09-19T05:47:50;26.67;;;11.73;;
9904;SDS011;4991;43.566;27.820;2023-09-19T05:50:17;30.73;;;13.40;;
9904;SDS011;4991;43.566;27.820;2023-09-19T05:52:50;26.50;;;12.57;;
9904;SDS011;4991;43.566;27.820;2023-09-19T05:55:17;24.30;;;13.53;;
9904;SDS011;4991;43.566;27.820;2023-09-19T05:57:43;21.27;;;13.07;;
9904;SDS011;4991;43.566;27.820;2023-09-19T06:00:09;26.10;;;14.70;;
9904;SDS011;4991;43.566;27.820;2023-09-19T06:02:36;29.17;;;14.53;;
9904;SDS011;4991;43.566;27.820;2023-09-19T06:05:06;21.23;;;13.07;;
9904;SDS011;4991;43.566;27.820;2023-09-19T06:07:36;19.60;;;11.93;;
9904;SDS011;4991;43.566;27.820;2023-09-19T06:10:05;23.53;;;10.57;;
9904;SDS011;4991;43.566;27.820;2023-09-19T06:12:40;13.73;;;10.17;;
9904;SDS011;4991;43.566;27.820;2023-09-19T06:15:12;22.23;;;10.37;;
9904;SDS011;4991;43.566;27.820;2023-09-19T06:17:47;21.43;;;11.97;;
9904;SDS011;4991;43.566;27.820;2023-09-19T06:20:13;14.37;;;10.07;;
9904;SDS011;4991;43.566;27.820;2023-09-19T06:22:44;13.30;;;10.90;;
9904;SDS011;4991;43.566;27.820;2023-09-19T06:25:11;13.80;;;10.20;;
9904;SDS011;4991;43.566;27.820;2023-09-19T06:27:44;15.67;;;10.27;;
9904;SDS011;4991;43.566;27.820;2023-09-19T06:30:19;16.93;;;11.27;;
9904;SDS011;4991;43.566;27.820;2023-09-19T06:33:08;24.50;;;11.60;;
9904;SDS011;4991;43.566;27.820;2023-09-19T06:35:42;22.83;;;13.40;;
9904;SDS011;4991;43.566;27.820;2023-09-19T06:38:12;15.93;;;12.40;;
9904;SDS011;4991;43.566;27.820;2023-09-19T06:40:38;19.00;;;12.00;;
9904;SDS011;4991;43.566;27.820;2023-09-19T06:43:09;18.73;;;11.93;;
9904;SDS011;4991;43.566;27.820;2023-09-19T06:45:35;23.20;;;10.87;;
9904;SDS011;4991;43.566;27.820;2023-09-19T06:48:01;19.30;;;10.83;;
9904;SDS011;4991;43.566;27.820;2023-09-19T06:50:28;14.77;;;9.37;;
9904;SDS011;4991;43.566;27.820;2023-09-19T06:52:59;16.77;;;9.30;;
9904;SDS011;4991;43.566;27.820;2023-09-19T06:55:26;12.97;;;8.50;;
9904;SDS011;4991;43.566;27.820;2023-09-19T06:57:57;8.63;;;7.70;;
9904;SDS011;4991;43.566;27.820;2023-09-19T07:00:23;9.23;;;7.50;;
9904;SDS011;4991;43.566;27.820;2023-09-19T07:03:00;17.03;;;8.90;;
9904;SDS011;4991;43.566;27.820;2023-09-19T07:05:29;12.33;;;8.33;;
9904;SDS011;4991;43.566;27.820;2023-09-19T07:07:56;12.00;;;7.30;;
9904;SDS011;4991;43.566;27.820;2023-09-19T07:10:26;11.60;;;7.20;;
9904;SDS011;4991;43.566;27.820;2023-09-19T07:12:56;13.17;;;7.40;;
9904;SDS011;4991;43.566;27.820;2023-09-19T07:15:22;11.17;;;6.77;;
9904;SDS011;4991;43.566;27.820;2023-09-19T07:17:48;12.70;;;6.67;;
9904;SDS011;4991;43.566;27.820;2023-09-19T07:20:14;8.33;;;6.10;;
9904;SDS011;4991;43.566;27.820;2023-09-19T07:22:41;6.77;;;6.10;;
9904;SDS011;4991;43.566;27.820;2023-09-19T07:25:07;7.37;;;5.43;;
9904;SDS011;4991;43.566;27.820;2023-09-19T07:27:33;10.13;;;5.90;;
9904;SDS011;4991;43.566;27.820;2023-09-19T07:29:59;6.90;;;5.07;;
9904;SDS011;4991;43.566;27.820;2023-09-19T07:32:24;8.83;;;5.57;;
9904;SDS011;4991;43.566;27.820;2023-09-19T07:34:50;6.27;;;4.77;;
9904;SDS011;4991;43.566;27.820;2023-09-19T07:37:16;6.50;;;5.80;;
9904;SDS011;4991;43.566;27.820;2023-09-19T07:39:41;6.03;;;5.20;;
9904;SDS011;4991;43.566;27.820;2023-09-19T07:42:07;6.87;;;5.30;;
9904;SDS011;4991;43.566;27.820;2023-09-19T07:44:34;8.07;;;5.73;;
9904;SDS011;4991;43.566;27.820;2023-09-19T07:47:00;7.57;;;5.33;;
9904;SDS011;4991;43.566;27.820;2023-09-19T07:49:28;6.97;;;4.93;;
9904;SDS011;4991;43.566;27.820;2023-09-19T07:51:54;7.83;;;5.47;;
9904;SDS011;4991;43.566;27.820;2023-09-19T07:54:22;7.50;;;5.53;;
9904;SDS011;4991;43.566;27.820;2023-09-19T07:56:47;10.30;;;6.50;;
9904;SDS011;4991;43.566;27.820;2023-09-19T07:59:13;9.40;;;5.70;;
9904;SDS011;4991;43.566;27.820;2023-09-19T08:01:38;5.57;;;5.07;;
9904;SDS011;4991;43.566;27.820;2023-09-19T08:04:07;6.40;;;4.83;;
9904;SDS011;4991;43.566;27.820;2023-09-19T08:09:49;4.60;;;4.13;;
9904;SDS011;4991;43.566;27.820;2023-09-19T08:12:14;7.97;;;4.80;;
9904;SDS011;4991;43.566;27.820;2023-09-19T08:14:41;6.57;;;4.30;;
9904;SDS011;4991;43.566;27.820;2023-09-19T08:17:07;5.65;;;4.32;;
9904;SDS011;4991;43.566;27.820;2023-09-19T08:22:26;8.32;;;4.70;;
9904;SDS011;4991;43.566;27.820;2023-09-19T08:24:53;5.32;;;4.25;;
9904;SDS011;4991;43.566;27.820;2023-09-19T08:27:20;4.38;;;3.97;;
9904;SDS011;4991;43.566;27.820;2023-09-19T08:29:46;7.43;;;4.20;;
9904;SDS011;4991;43.566;27.820;2023-09-19T08:32:12;8.07;;;4.55;;
9904;SDS011;4991;43.566;27.820;2023-09-19T08:34:37;7.90;;;3.90;;
9904;SDS011;4991;43.566;27.820;2023-09-19T08:37:03;8.43;;;5.10;;
9904;SDS011;4991;43.566;27.820;2023-09-19T08:39:29;5.63;;;4.40;;
9904;SDS011;4991;43.566;27.820;2023-09-19T08:41:59;7.70;;;4.60;;
9904;SDS011;4991;43.566;27.820;2023-09-19T08:44:25;5.32;;;3.90;;
9904;SDS011;4991;43.566;27.820;2023-09-19T08:46:59;5.30;;;4.28;;
9904;SDS011;4991;43.566;27.820;2023-09-19T08:50:11;6.07;;;4.30;;
9904;SDS011;4991;43.566;27.820;2023-09-19T08:52:41;11.02;;;5.05;;
9904;SDS011;4991;43.566;27.820;2023-09-19T08:55:10;6.63;;;4.45;;
9904;SDS011;4991;43.566;27.820;2023-09-19T08:57:38;5.38;;;4.60;;
9904;SDS011;4991;43.566;27.820;2023-09-19T09:00:07;5.07;;;4.60;;
9904;SDS011;4991;43.566;27.820;2023-09-19T09:02:38;6.38;;;4.30;;
9904;SDS011;4991;43.566;27.820;2023-09-19T09:05:08;7.50;;;4.10;;
9904;SDS011;4991;43.566;27.820;2023-09-19T09:07:37;14.02;;;10.00;;
9904;SDS011;4991;43.566;27.820;2023-09-19T09:10:05;5.03;;;4.15;;
9904;SDS011;4991;43.566;27.820;2023-09-19T09:12:38;6.65;;;5.32;;
9904;SDS011;4991;43.566;27.820;2023-09-19T09:15:06;10.35;;;6.03;;
9904;SDS011;4991;43.566;27.820;2023-09-19T09:17:35;12.98;;;5.82;;
9904;SDS011;4991;43.566;27.820;2023-09-19T09:20:00;11.00;;;6.38;;
9904;SDS011;4991;43.566;27.820;2023-09-19T09:22:26;5.43;;;4.05;;
9904;SDS011;4991;43.566;27.820;2023-09-19T09:24:56;7.50;;;4.65;;
9904;SDS011;4991;43.566;27.820;2023-09-19T09:27:23;3.60;;;3.30;;
9904;SDS011;4991;43.566;27.820;2023-09-19T09:29:50;6.57;;;4.38;;
9904;SDS011;4991;43.566;27.820;2023-09-19T09:32:18;4.15;;;3.75;;
9904;SDS011;4991;43.566;27.820;2023-09-19T09:35:00;6.68;;;4.38;;
9904;SDS011;4991;43.566;27.820;2023-09-19T09:37:27;6.20;;;3.72;;
9904;SDS011;4991;43.566;27.820;2023-09-19T09:40:02;4.85;;;4.15;;
9904;SDS011;4991;43.566;27.820;2023-09-19T09:42:46;5.75;;;4.22;;
9904;SDS011;4991;43.566;27.820;2023-09-19T09:45:19;4.85;;;3.80;;
9904;SDS011;4991;43.566;27.820;2023-09-19T09:48:00;8.82;;;6.55;;
9904;SDS011;4991;43.566;27.820;2023-09-19T09:58:19;5.20;;;3.60;;
9904;SDS011;4991;43.566;27.820;2023-09-19T10:03:56;8.32;;;6.30;;
9904;SDS011;4991;43.566;27.820;2023-09-19T10:06:57;5.35;;;4.50;;
9904;SDS011;4991;43.566;27.820;2023-09-19T10:10:13;5.32;;;4.50;;
9904;SDS011;4991;43.566;27.820;2023-09-19T10:19:58;3.72;;;3.40;;
9904;SDS011;4991;43.566;27.820;2023-09-19T10:23:44;10.55;;;9.32;;
9904;SDS011;4991;43.566;27.820;2023-09-19T10:26:17;3.72;;;3.08;;
9904;SDS011;4991;43.566;27.820;2023-09-19T10:28:56;3.63;;;3.30;;
9904;SDS011;4991;43.566;27.820;2023-09-19T10:38:18;3.80;;;3.13;;
9904;SDS011;4991;43.566;27.820;2023-09-19T10:41:15;3.17;;;2.90;;
9904;SDS011;4991;43.566;27.820;2023-09-19T10:50:26;6.22;;;3.13;;
9904;SDS011;4991;43.566;27.820;2023-09-19T10:56:44;3.60;;;3.10;;
9904;SDS011;4991;43.566;27.820;2023-09-19T11:04:46;3.20;;;2.92;;
9904;SDS011;4991;43.566;27.820;2023-09-19T11:13:29;5.90;;;3.05;;
9904;SDS011;4991;43.566;27.820;2023-09-19T11:16:04;4.72;;;3.08;;
9904;SDS011;4991;43.566;27.820;2023-09-19T11:26:50;2.92;;;2.67;;
9904;SDS011;4991;43.566;27.820;2023-09-19T11:29:26;5.60;;;2.85;;
9904;SDS011;4991;43.566;27.820;2023-09-19T11:31:56;5.32;;;3.28;;
9904;SDS011;4991;43.566;27.820;2023-09-19T11:37:01;4.22;;;2.83;;
9904;SDS011;4991;43.566;27.820;2023-09-19T11:39:29;3.47;;;3.13;;
9904;SDS011;4991;43.566;27.820;2023-09-19T11:41:55;4.18;;;2.90;;
9904;SDS011;4991;43.566;27.820;2023-09-19T11:49:18;7.55;;;3.55;;
9904;SDS011;4991;43.566;27.820;2023-09-19T11:51:51;7.68;;;4.20;;
9904;SDS011;4991;43.566;27.820;2023-09-19T11:54:17;4.75;;;2.90;;
9904;SDS011;4991;43.566;27.820;2023-09-19T11:56:44;4.95;;;3.50;;
9904;SDS011;4991;43.566;27.820;2023-09-19T11:59:13;6.03;;;3.53;;
9904;SDS011;4991;43.566;27.820;2023-09-19T12:01:52;7.05;;;4.32;;
9904;SDS011;4991;43.566;27.820;2023-09-19T12:04:40;5.82;;;5.10;;
9904;SDS011;4991;43.566;27.820;2023-09-19T12:07:09;5.10;;;3.72;;
9904;SDS011;4991;43.566;27.820;2023-09-19T12:09:42;4.45;;;4.07;;
9904;SDS011;4991;43.566;27.820;2023-09-19T12:12:12;7.63;;;3.50;;
9904;SDS011;4991;43.566;27.820;2023-09-19T12:14:55;5.15;;;3.95;;
9904;SDS011;4991;43.566;27.820;2023-09-19T12:17:23;7.40;;;3.83;;
9904;SDS011;4991;43.566;27.820;2023-09-19T12:20:01;6.70;;;3.78;;
9904;SDS011;4991;43.566;27.820;2023-09-19T12:22:40;8.93;;;4.15;;
9904;SDS011;4991;43.566;27.820;2023-09-19T12:25:08;5.85;;;3.63;;
9904;SDS011;4991;43.566;27.820;2023-09-19T12:27:44;8.00;;;3.55;;
9904;SDS011;4991;43.566;27.820;2023-09-19T12:30:18;6.30;;;3.35;;
9904;SDS011;4991;43.566;27.820;2023-09-19T12:32:46;5.75;;;3.40;;
9904;SDS011;4991;43.566;27.820;2023-09-19T12:35:29;4.22;;;3.58;;
9904;SDS011;4991;43.566;27.820;2023-09-19T12:38:09;3.97;;;3.58;;
9904;SDS011;4991;43.566;27.820;2023-09-19T12:43:57;4.93;;;3.83;;
9904;SDS011;4991;43.566;27.820;2023-09-19T12:46:25;6.75;;;3.35;;
9904;SDS011;4991;43.566;27.820;2023-09-19T12:51:48;6.57;;;4.00;;
9904;SDS011;4991;43.566;27.820;2023-09-19T12:54:14;6.13;;;3.67;;
9904;SDS011;4991;43.566;27.820;2023-09-19T12:56:44;4.78;;;4.05;;
9904;SDS011;4991;43.566;27.820;2023-09-19T12:59:13;7.47;;;4.28;;
9904;SDS011;4991;43.566;27.820;2023-09-19T13:04:54;3.67;;;3.38;;
9904;SDS011;4991;43.566;27.820;2023-09-19T13:07:43;5.57;;;3.97;;
9904;SDS011;4991;43.566;27.820;2023-09-19T13:10:10;6.70;;;3.92;;
9904;SDS011;4991;43.566;27.820;2023-09-19T13:12:37;5.00;;;3.55;;
9904;SDS011;4991;43.566;27.820;2023-09-19T13:15:07;6.40;;;3.70;;
9904;SDS011;4991;43.566;27.820;2023-09-19T13:17:44;5.30;;;4.07;;
9904;SDS011;4991;43.566;27.820;2023-09-19T13:20:22;7.13;;;3.80;;
9904;SDS011;4991;43.566;27.820;2023-09-19T13:22:54;7.43;;;4.90;;
9904;SDS011;4991;43.566;27.820;2023-09-19T13:25:25;5.07;;;3.65;;
9904;SDS011;4991;43.566;27.820;2023-09-19T13:27:55;6.85;;;3.78;;
9904;SDS011;4991;43.566;27.820;2023-09-19T13:30:23;5.28;;;4.00;;
9904;SDS011;4991;43.566;27.820;2023-09-19T13:33:10;7.05;;;4.38;;
9904;SDS011;4991;43.566;27.820;2023-09-19T13:35:38;7.40;;;5.60;;
9904;SDS011;4991;43.566;27.820;2023-09-19T13:38:07;8.45;;;4.38;;
9904;SDS011;4991;43.566;27.820;2023-09-19T13:40:38;8.57;;;4.40;;
9904;SDS011;4991;43.566;27.820;2023-09-19T13:43:06;11.05;;;4.78;;
9904;SDS011;4991;43.566;27.820;2023-09-19T13:45:33;5.60;;;4.78;;
9904;SDS011;4991;43.566;27.820;2023-09-19T13:53:32;6.78;;;4.40;;
9904;SDS011;4991;43.566;27.820;2023-09-19T13:55:59;6.03;;;4.80;;
9904;SDS011;4991;43.566;27.820;2023-09-19T13:58:24;6.57;;;4.18;;
9904;SDS011;4991;43.566;27.820;2023-09-19T14:00:52;6.70;;;4.50;;
9904;SDS011;4991;43.566;27.820;2023-09-19T14:03:20;10.20;;;4.60;;
9904;SDS011;4991;43.566;27.820;2023-09-19T14:05:48;6.75;;;4.20;;
9904;SDS011;4991;43.566;27.820;2023-09-19T14:08:16;8.15;;;4.50;;
9904;SDS011;4991;43.566;27.820;2023-09-19T14:10:42;4.88;;;4.10;;
9904;SDS011;4991;43.566;27.820;2023-09-19T14:13:07;5.32;;;4.22;;
9904;SDS011;4991;43.566;27.820;2023-09-19T14:15:36;6.10;;;4.40;;
9904;SDS011;4991;43.566;27.820;2023-09-19T14:18:03;5.35;;;4.22;;
9904;SDS011;4991;43.566;27.820;2023-09-19T14:20:30;6.28;;;4.60;;
9904;SDS011;4991;43.566;27.820;2023-09-19T14:22:56;5.15;;;4.35;;
9904;SDS011;4991;43.566;27.820;2023-09-19T14:25:24;6.03;;;4.47;;
9904;SDS011;4991;43.566;27.820;2023-09-19T14:27:50;8.07;;;4.78;;
9904;SDS011;4991;43.566;27.820;2023-09-19T14:30:36;6.50;;;4.32;;
9904;SDS011;4991;43.566;27.820;2023-09-19T14:33:04;6.55;;;4.03;;
9904;SDS011;4991;43.566;27.820;2023-09-19T14:35:31;8.48;;;4.22;;
9904;SDS011;4991;43.566;27.820;2023-09-19T14:37:56;5.97;;;4.50;;
9904;SDS011;4991;43.566;27.820;2023-09-19T14:40:24;4.53;;;4.13;;
9904;SDS011;4991;43.566;27.820;2023-09-19T14:42:50;5.95;;;5.20;;
9904;SDS011;4991;43.566;27.820;2023-09-19T14:45:16;12.18;;;5.18;;
9904;SDS011;4991;43.566;27.820;2023-09-19T14:47:45;7.55;;;4.97;;
9904;SDS011;4991;43.566;27.820;2023-09-19T14:50:11;10.93;;;5.45;;
9904;SDS011;4991;43.566;27.820;2023-09-19T14:52:38;5.15;;;4.63;;
9904;SDS011;4991;43.566;27.820;2023-09-19T14:55:05;6.38;;;4.10;;
9904;SDS011;4991;43.566;27.820;2023-09-19T14:57:34;6.35;;;4.90;;
9904;SDS011;4991;43.566;27.820;2023-09-19T15:00:00;7.63;;;4.30;;
9904;SDS011;4991;43.566;27.820;2023-09-19T15:02:26;7.95;;;4.50;;
9904;SDS011;4991;43.566;27.820;2023-09-19T15:04:52;8.43;;;4.57;;
9904;SDS011;4991;43.566;27.820;2023-09-19T15:07:18;5.57;;;4.57;;
9904;SDS011;4991;43.566;27.820;2023-09-19T15:09:45;6.28;;;4.28;;
9904;SDS011;4991;43.566;27.820;2023-09-19T15:12:11;6.47;;;4.13;;
9904;SDS011;4991;43.566;27.820;2023-09-19T15:14:39;6.65;;;4.53;;
9904;SDS011;4991;43.566;27.820;2023-09-19T15:17:06;6.82;;;4.40;;
9904;SDS011;4991;43.566;27.820;2023-09-19T15:19:32;9.88;;;5.18;;
9904;SDS011;4991;43.566;27.820;2023-09-19T15:21:58;7.88;;;5.93;;
9904;SDS011;4991;43.566;27.820;2023-09-19T15:24:23;10.30;;;5.28;;
9904;SDS011;4991;43.566;27.820;2023-09-19T15:26:50;5.93;;;5.32;;
9904;SDS011;4991;43.566;27.820;2023-09-19T15:29:16;6.15;;;4.40;;
9904;SDS011;4991;43.566;27.820;2023-09-19T15:31:41;6.05;;;4.65;;
9904;SDS011;4991;43.566;27.820;2023-09-19T15:34:07;6.80;;;4.43;;
9904;SDS011;4991;43.566;27.820;2023-09-19T15:36:33;9.25;;;4.90;;
9904;SDS011;4991;43.566;27.820;2023-09-19T15:39:06;6.70;;;4.78;;
9904;SDS011;4991;43.566;27.820;2023-09-19T15:41:39;5.10;;;4.22;;
9904;SDS011;4991;43.566;27.820;2023-09-19T15:44:15;8.15;;;4.82;;
9904;SDS011;4991;43.566;27.820;2023-09-19T15:46:44;4.78;;;4.18;;
9904;SDS011;4991;43.566;27.820;2023-09-19T15:49:11;11.50;;;5.47;;
9904;SDS011;4991;43.566;27.820;2023-09-19T15:51:38;5.70;;;4.72;;
9904;SDS011;4991;43.566;27.820;2023-09-19T15:54:11;10.77;;;5.35;;
9904;SDS011;4991;43.566;27.820;2023-09-19T15:56:41;18.58;;;5.43;;
9904;SDS011;4991;43.566;27.820;2023-09-19T15:59:12;7.70;;;4.90;;
9904;SDS011;4991;43.566;27.820;2023-09-19T16:01:44;8.43;;;5.38;;
9904;SDS011;4991;43.566;27.820;2023-09-19T16:06:55;5.78;;;4.88;;
9904;SDS011;4991;43.566;27.820;2023-09-19T16:09:21;9.05;;;6.25;;
9904;SDS011;4991;43.566;27.820;2023-09-19T16:11:47;7.87;;;5.33;;
9904;SDS011;4991;43.566;27.820;2023-09-19T16:14:14;6.33;;;5.20;;
9904;SDS011;4991;43.566;27.820;2023-09-19T16:16:40;19.93;;;12.23;;
9904;SDS011;4991;43.566;27.820;2023-09-19T16:19:06;8.63;;;6.73;;
9904;SDS011;4991;43.566;27.820;2023-09-19T16:21:36;8.23;;;5.57;;
9904;SDS011;4991;43.566;27.820;2023-09-19T16:24:02;7.87;;;6.00;;
9904;SDS011;4991;43.566;27.820;2023-09-19T16:26:28;13.50;;;8.03;;
9904;SDS011;4991;43.566;27.820;2023-09-19T16:31:28;8.67;;;6.07;;
9904;SDS011;4991;43.566;27.820;2023-09-19T16:33:54;11.07;;;6.20;;
9904;SDS011;4991;43.566;27.820;2023-09-19T16:36:21;10.97;;;5.83;;
9904;SDS011;4991;43.566;27.820;2023-09-19T16:39:06;8.63;;;6.03;;
9904;SDS011;4991;43.566;27.820;2023-09-19T16:41:35;8.70;;;6.27;;
9904;SDS011;4991;43.566;27.820;2023-09-19T16:44:14;8.43;;;6.03;;
9904;SDS011;4991;43.566;27.820;2023-09-19T16:46:41;13.47;;;6.40;;
9904;SDS011;4991;43.566;27.820;2023-09-19T16:49:10;7.37;;;5.33;;
9904;SDS011;4991;43.566;27.820;2023-09-19T16:51:40;5.77;;;5.17;;
9904;SDS011;4991;43.566;27.820;2023-09-19T16:54:08;9.03;;;6.13;;
9904;SDS011;4991;43.566;27.820;2023-09-19T16:56:35;6.73;;;4.80;;
9904;SDS011;4991;43.566;27.820;2023-09-19T16:59:04;9.13;;;5.73;;
9904;SDS011;4991;43.566;27.820;2023-09-19T17:01:46;8.43;;;5.70;;
9904;SDS011;4991;43.566;27.820;2023-09-19T17:04:11;8.33;;;5.63;;